createdAt,value
2017-05-05T00:00:45.364Z,0
2017-05-05T00:01:44.331Z,0
2017-05-05T00:02:44.328Z,0
2017-05-05T00:03:44.450Z,0
2017-05-05T00:04:44.370Z,0
2017-05-05T00:05:44.344Z,0
2017-05-05T00:06:44.342Z,0
2017-05-05T00:07:44.350Z,0
2017-05-05T00:08:44.455Z,0
2017-05-05T00:09:44.347Z,0
2017-05-05T00:10:44.334Z,0
2017-05-05T00:11:44.350Z,0
2017-05-05T00:12:44.350Z,0
2017-05-05T00:13:44.345Z,0
2017-05-05T00:14:44.372Z,0
2017-05-05T00:15:44.396Z,0
2017-05-05T00:16:44.396Z,0
2017-05-05T00:17:44.355Z,0
2017-05-05T00:18:44.322Z,0
2017-05-05T00:19:44.357Z,0
2017-05-05T00:20:44.326Z,0
2017-05-05T00:21:44.332Z,0
2017-05-05T00:22:44.331Z,0
2017-05-05T00:23:44.329Z,0
2017-05-05T00:24:44.333Z,0
2017-05-05T00:25:44.328Z,0
2017-05-05T00:26:44.332Z,0
2017-05-05T00:27:44.329Z,0
2017-05-05T00:28:44.333Z,0
2017-05-05T00:29:44.326Z,0
2017-05-05T00:30:44.365Z,0
2017-05-05T00:31:44.359Z,0
2017-05-05T00:32:44.359Z,0
2017-05-05T00:33:44.352Z,0
2017-05-05T00:34:44.358Z,0
2017-05-05T00:35:44.373Z,0
2017-05-05T00:36:44.355Z,0
2017-05-05T00:37:44.325Z,0
2017-05-05T00:38:44.359Z,0
2017-05-05T00:39:44.365Z,0
2017-05-05T00:40:44.364Z,0
2017-05-05T00:41:44.470Z,0
2017-05-05T00:42:44.337Z,0
2017-05-05T00:43:44.365Z,0
2017-05-05T00:44:44.389Z,0
2017-05-05T00:45:44.366Z,0
2017-05-05T00:46:44.363Z,0
2017-05-05T00:47:44.366Z,0
2017-05-05T00:48:44.470Z,0
2017-05-05T00:49:44.371Z,0
2017-05-05T00:50:44.341Z,0
2017-05-05T00:51:44.341Z,0
2017-05-05T00:52:44.342Z,0
2017-05-05T00:53:44.355Z,0
2017-05-05T00:54:44.340Z,0
2017-05-05T00:55:44.341Z,0
2017-05-05T00:56:44.340Z,0
2017-05-05T00:57:44.339Z,0
2017-05-05T00:58:44.343Z,0
2017-05-05T00:59:44.342Z,0
2017-05-05T01:00:44.344Z,0
2017-05-05T01:01:44.358Z,0
2017-05-05T01:02:44.400Z,0
2017-05-05T01:03:44.365Z,0
2017-05-05T01:04:44.372Z,0
2017-05-05T01:05:44.382Z,0
2017-05-05T01:06:44.343Z,0
2017-05-05T01:07:44.350Z,0
2017-05-05T01:08:44.346Z,0
2017-05-05T01:09:44.380Z,0
2017-05-05T01:10:44.316Z,0
2017-05-05T01:11:44.327Z,0
2017-05-05T01:12:44.281Z,0
2017-05-05T01:13:44.278Z,0
2017-05-05T01:14:44.283Z,0
2017-05-05T01:15:44.339Z,0
2017-05-05T01:16:44.289Z,0
2017-05-05T01:17:44.292Z,0
2017-05-05T01:18:44.290Z,0
2017-05-05T01:19:44.381Z,0
2017-05-05T01:20:44.367Z,0
2017-05-05T01:21:44.371Z,0
2017-05-05T01:22:44.366Z,0
2017-05-05T01:23:44.369Z,0
2017-05-05T01:24:44.380Z,0
2017-05-05T01:25:44.369Z,0
2017-05-05T01:26:44.371Z,0
2017-05-05T01:27:44.381Z,0
2017-05-05T01:28:44.373Z,0
2017-05-05T01:29:44.369Z,0
2017-05-05T01:30:44.374Z,0
2017-05-05T01:31:44.349Z,0
2017-05-05T01:32:44.375Z,0
2017-05-05T01:33:44.397Z,0
2017-05-05T01:34:44.410Z,0
2017-05-05T01:35:44.397Z,0
2017-05-05T01:36:44.394Z,0
2017-05-05T01:37:44.385Z,0
2017-05-05T01:38:44.395Z,0
2017-05-05T01:39:44.403Z,0
2017-05-05T01:40:44.392Z,0
2017-05-05T01:41:44.415Z,0
2017-05-05T01:42:44.398Z,0
2017-05-05T01:43:44.397Z,0
2017-05-05T01:44:44.390Z,0
2017-05-05T01:45:44.393Z,0
2017-05-05T01:46:44.397Z,0
2017-05-05T01:47:44.363Z,0
2017-05-05T01:48:44.501Z,0
2017-05-05T01:49:44.502Z,0
2017-05-05T01:50:44.402Z,0
2017-05-05T01:51:44.375Z,0
2017-05-05T01:52:44.373Z,0
2017-05-05T01:53:44.374Z,0
2017-05-05T01:54:44.374Z,0
2017-05-05T01:55:44.375Z,0
2017-05-05T01:56:44.375Z,0
2017-05-05T01:57:44.379Z,0
2017-05-05T01:58:44.380Z,0
2017-05-05T01:59:44.375Z,0
2017-05-05T02:00:44.380Z,0
2017-05-05T02:01:44.385Z,0
2017-05-05T02:02:44.408Z,0
2017-05-05T02:03:44.377Z,0
2017-05-05T02:04:44.408Z,0
2017-05-05T02:05:44.406Z,0
2017-05-05T02:06:44.400Z,0
2017-05-05T02:07:44.419Z,0
2017-05-05T02:08:44.394Z,0
2017-05-05T02:09:44.412Z,0
2017-05-05T02:10:44.404Z,0
2017-05-05T02:11:44.545Z,0
2017-05-05T02:12:44.417Z,0
2017-05-05T02:13:44.412Z,0
2017-05-05T02:14:44.378Z,0
2017-05-05T02:15:44.517Z,0
2017-05-05T02:16:44.368Z,0
2017-05-05T02:17:44.433Z,0
2017-05-05T02:18:44.413Z,0
2017-05-05T02:19:44.441Z,0
2017-05-05T02:20:44.415Z,0
2017-05-05T02:21:44.400Z,0
2017-05-05T02:22:44.401Z,0
2017-05-05T02:23:44.430Z,0
2017-05-05T02:24:44.405Z,0
2017-05-05T02:25:44.397Z,0
2017-05-05T02:26:44.403Z,0
2017-05-05T02:27:44.404Z,0
2017-05-05T02:28:44.403Z,0
2017-05-05T02:29:44.400Z,0
2017-05-05T02:30:44.403Z,0
2017-05-05T02:31:44.415Z,0
2017-05-05T02:32:44.441Z,0
2017-05-05T02:33:44.417Z,0
2017-05-05T02:34:44.420Z,0
2017-05-05T02:35:44.397Z,0
2017-05-05T02:36:44.417Z,0
2017-05-05T02:37:44.446Z,0
2017-05-05T02:38:44.427Z,0
2017-05-05T02:39:44.427Z,0
2017-05-05T02:40:44.424Z,0
2017-05-05T02:41:44.410Z,0
2017-05-05T02:42:44.385Z,0
2017-05-05T02:43:44.409Z,0
2017-05-05T02:44:44.414Z,0
2017-05-05T02:45:44.408Z,0
2017-05-05T02:46:44.415Z,0
2017-05-05T02:47:44.411Z,0
2017-05-05T02:48:44.414Z,0
2017-05-05T02:49:44.415Z,0
2017-05-05T02:50:44.493Z,0
2017-05-05T02:51:44.401Z,0
2017-05-05T02:52:44.403Z,0
2017-05-05T02:53:44.398Z,0
2017-05-05T02:54:44.403Z,0
2017-05-05T02:55:44.403Z,0
2017-05-05T02:56:44.405Z,0
2017-05-05T02:57:44.404Z,0
2017-05-05T02:58:44.404Z,0
2017-05-05T02:59:44.405Z,0
2017-05-05T03:00:44.405Z,0
2017-05-05T03:01:44.439Z,0
2017-05-05T03:02:44.458Z,0
2017-05-05T03:03:44.441Z,0
2017-05-05T03:04:44.405Z,0
2017-05-05T03:05:44.444Z,0
2017-05-05T03:06:44.440Z,0
2017-05-05T03:07:44.443Z,0
2017-05-05T03:08:44.408Z,0
2017-05-05T03:09:44.440Z,0
2017-05-05T03:10:44.541Z,0
2017-05-05T03:11:44.446Z,0
2017-05-05T03:12:44.542Z,0
2017-05-05T03:13:44.421Z,0
2017-05-05T03:14:44.463Z,0
2017-05-05T03:15:44.436Z,0
2017-05-05T03:16:44.438Z,0
2017-05-05T03:17:44.425Z,0
2017-05-05T03:18:44.445Z,0
2017-05-05T03:19:44.445Z,0
2017-05-05T03:20:44.546Z,0
2017-05-05T03:21:44.449Z,0
2017-05-05T03:22:44.442Z,0
2017-05-05T03:23:44.408Z,0
2017-05-05T03:24:44.549Z,0
2017-05-05T03:25:44.447Z,0
2017-05-05T03:26:44.553Z,0
2017-05-05T03:27:44.439Z,0
2017-05-05T03:28:44.453Z,0
2017-05-05T03:29:44.467Z,0
2017-05-05T03:30:44.451Z,0
2017-05-05T03:31:44.435Z,0
2017-05-05T03:32:44.435Z,0
2017-05-05T03:33:44.431Z,0
2017-05-05T03:34:44.431Z,0
2017-05-05T03:35:44.432Z,0
2017-05-05T03:36:44.440Z,0
2017-05-05T03:37:44.437Z,0
2017-05-05T03:38:44.435Z,0
2017-05-05T03:39:44.437Z,0
2017-05-05T03:40:44.434Z,0
2017-05-05T03:41:44.437Z,0
2017-05-05T03:42:44.439Z,5
2017-05-05T03:43:44.444Z,5
2017-05-05T03:44:44.439Z,5
2017-05-05T03:45:44.453Z,5
2017-05-05T03:46:44.440Z,5
2017-05-05T03:47:44.444Z,5
2017-05-05T03:48:44.445Z,11
2017-05-05T03:49:44.442Z,11
2017-05-05T03:50:44.445Z,11
2017-05-05T03:51:44.439Z,16
2017-05-05T03:52:44.458Z,16
2017-05-05T03:53:44.447Z,16
2017-05-05T03:54:44.440Z,16
2017-05-05T03:55:44.459Z,22
2017-05-05T03:56:44.461Z,22
2017-05-05T03:57:44.480Z,22
2017-05-05T03:58:44.505Z,22
2017-05-05T03:59:44.464Z,28
2017-05-05T04:00:44.449Z,28
2017-05-05T04:01:44.434Z,28
2017-05-05T04:02:44.436Z,33
2017-05-05T04:03:44.435Z,33
2017-05-05T04:04:44.444Z,33
2017-05-05T04:05:44.435Z,39
2017-05-05T04:06:44.435Z,45
2017-05-05T04:07:44.438Z,45
2017-05-05T04:08:44.437Z,45
2017-05-05T04:09:44.438Z,50
2017-05-05T04:10:44.441Z,50
2017-05-05T04:11:44.470Z,56
2017-05-05T04:12:44.432Z,56
2017-05-05T04:13:44.472Z,61
2017-05-05T04:14:44.547Z,61
2017-05-05T04:15:44.470Z,61
2017-05-05T04:16:44.474Z,61
2017-05-05T04:17:44.472Z,67
2017-05-05T04:18:44.491Z,73
2017-05-05T04:19:44.497Z,78
2017-05-05T04:20:44.493Z,78
2017-05-05T04:21:44.453Z,84
2017-05-05T04:22:44.452Z,84
2017-05-05T04:23:44.456Z,84
2017-05-05T04:24:44.459Z,90
2017-05-05T04:25:44.462Z,90
2017-05-05T04:26:44.459Z,90
2017-05-05T04:27:44.461Z,90
2017-05-05T04:28:44.463Z,84
2017-05-05T04:29:44.484Z,73
2017-05-05T04:30:44.459Z,84
2017-05-05T04:31:44.449Z,95
2017-05-05T04:32:44.446Z,101
2017-05-05T04:33:44.452Z,95
2017-05-05T04:34:44.448Z,101
2017-05-05T04:35:44.457Z,112
2017-05-05T04:36:44.450Z,123
2017-05-05T04:37:44.449Z,135
2017-05-05T04:38:44.450Z,135
2017-05-05T04:39:44.471Z,129
2017-05-05T04:40:44.473Z,129
2017-05-05T04:41:44.452Z,135
2017-05-05T04:42:44.457Z,140
2017-05-05T04:43:44.452Z,146
2017-05-05T04:44:44.453Z,140
2017-05-05T04:45:44.455Z,129
2017-05-05T04:46:44.456Z,140
2017-05-05T04:47:44.455Z,163
2017-05-05T04:48:44.455Z,191
2017-05-05T04:49:44.457Z,208
2017-05-05T04:50:44.454Z,208
2017-05-05T04:51:44.465Z,213
2017-05-05T04:52:44.469Z,225
2017-05-05T04:53:44.481Z,241
2017-05-05T04:54:44.470Z,241
2017-05-05T04:55:44.471Z,236
2017-05-05T04:56:44.469Z,236
2017-05-05T04:57:44.477Z,225
2017-05-05T04:58:44.473Z,213
2017-05-05T04:59:44.473Z,202
2017-05-05T05:00:44.473Z,202
2017-05-05T05:01:45.485Z,208
2017-05-05T05:02:44.463Z,225
2017-05-05T05:03:44.460Z,236
2017-05-05T05:04:44.463Z,236
2017-05-05T05:05:44.467Z,225
2017-05-05T05:06:44.464Z,208
2017-05-05T05:07:44.463Z,208
2017-05-05T05:08:44.464Z,225
2017-05-05T05:09:44.463Z,241
2017-05-05T05:10:44.467Z,241
2017-05-05T05:11:44.463Z,236
2017-05-05T05:12:44.599Z,219
2017-05-05T05:13:44.501Z,208
2017-05-05T05:14:44.500Z,208
2017-05-05T05:15:44.501Z,225
2017-05-05T05:16:44.477Z,253
2017-05-05T05:17:44.497Z,286
2017-05-05T05:18:44.605Z,298
2017-05-05T05:19:44.503Z,281
2017-05-05T05:20:44.498Z,258
2017-05-05T05:21:44.506Z,258
2017-05-05T05:22:44.476Z,258
2017-05-05T05:23:44.473Z,264
2017-05-05T05:24:44.471Z,286
2017-05-05T05:25:44.475Z,309
2017-05-05T05:26:44.476Z,303
2017-05-05T05:27:44.458Z,298
2017-05-05T05:28:44.470Z,292
2017-05-05T05:29:44.478Z,298
2017-05-05T05:30:44.479Z,309
2017-05-05T05:31:44.478Z,309
2017-05-05T05:32:44.474Z,309
2017-05-05T05:33:44.470Z,309
2017-05-05T05:34:44.473Z,326
2017-05-05T05:35:44.472Z,348
2017-05-05T05:36:44.474Z,376
2017-05-05T05:37:44.478Z,405
2017-05-05T05:38:44.480Z,427
2017-05-05T05:39:44.480Z,433
2017-05-05T05:40:44.483Z,433
2017-05-05T05:41:44.477Z,455
2017-05-05T05:42:44.509Z,489
2017-05-05T05:43:44.613Z,517
2017-05-05T05:44:44.626Z,545
2017-05-05T05:45:44.519Z,568
2017-05-05T05:46:44.516Z,579
2017-05-05T05:47:44.517Z,573
2017-05-05T05:48:44.493Z,556
2017-05-05T05:49:44.542Z,545
2017-05-05T05:50:44.514Z,534
2017-05-05T05:51:44.515Z,540
2017-05-05T05:52:44.507Z,540
2017-05-05T05:53:44.499Z,528
2017-05-05T05:54:44.500Z,517
2017-05-05T05:55:44.503Z,523
2017-05-05T05:56:44.501Z,523
2017-05-05T05:57:44.499Z,517
2017-05-05T05:58:44.503Z,511
2017-05-05T05:59:44.501Z,511
2017-05-05T06:00:44.507Z,517
2017-05-05T06:01:44.504Z,540
2017-05-05T06:02:44.521Z,540
2017-05-05T06:03:44.540Z,540
2017-05-05T06:04:44.524Z,528
2017-05-05T06:05:44.549Z,528
2017-05-05T06:06:44.543Z,540
2017-05-05T06:07:44.533Z,562
2017-05-05T06:08:44.546Z,601
2017-05-05T06:09:44.527Z,641
2017-05-05T06:10:44.548Z,658
2017-05-05T06:11:44.529Z,646
2017-05-05T06:12:44.469Z,630
2017-05-05T06:13:44.527Z,601
2017-05-05T06:14:44.493Z,607
2017-05-05T06:15:44.478Z,613
2017-05-05T06:16:44.491Z,590
2017-05-05T06:17:44.420Z,528
2017-05-05T06:18:44.482Z,523
2017-05-05T06:19:44.494Z,551
2017-05-05T06:20:44.420Z,573
2017-05-05T06:21:44.436Z,601
2017-05-05T06:22:44.515Z,641
2017-05-05T06:23:44.518Z,669
2017-05-05T06:24:44.515Z,686
2017-05-05T06:25:44.518Z,703
2017-05-05T06:26:44.619Z,725
2017-05-05T06:27:44.515Z,736
2017-05-05T06:28:44.518Z,748
2017-05-05T06:29:44.516Z,731
2017-05-05T06:30:44.514Z,703
2017-05-05T06:31:44.523Z,686
2017-05-05T06:32:44.537Z,708
2017-05-05T06:33:44.540Z,714
2017-05-05T06:34:44.535Z,736
2017-05-05T06:35:44.534Z,781
2017-05-05T06:36:44.500Z,815
2017-05-05T06:37:44.538Z,826
2017-05-05T06:38:44.562Z,832
2017-05-05T06:39:44.531Z,866
2017-05-05T06:40:44.542Z,866
2017-05-05T06:41:44.551Z,804
2017-05-05T06:42:44.546Z,731
2017-05-05T06:43:44.544Z,686
2017-05-05T06:44:44.540Z,641
2017-05-05T06:45:44.545Z,613
2017-05-05T06:46:44.546Z,590
2017-05-05T06:47:44.532Z,568
2017-05-05T06:48:44.530Z,534
2017-05-05T06:49:44.542Z,506
2017-05-05T06:50:44.556Z,495
2017-05-05T06:51:44.550Z,495
2017-05-05T06:52:44.572Z,489
2017-05-05T06:53:44.581Z,472
2017-05-05T06:54:44.513Z,472
2017-05-05T06:55:44.548Z,483
2017-05-05T06:56:44.512Z,511
2017-05-05T06:57:44.554Z,534
2017-05-05T06:58:44.547Z,556
2017-05-05T06:59:44.572Z,568
2017-05-05T07:00:44.548Z,573
2017-05-05T07:01:44.573Z,568
2017-05-05T07:02:44.529Z,551
2017-05-05T07:03:44.531Z,523
2017-05-05T07:04:44.531Z,517
2017-05-05T07:05:44.531Z,517
2017-05-05T07:06:44.532Z,528
2017-05-05T07:07:44.537Z,534
2017-05-05T07:08:44.530Z,545
2017-05-05T07:09:44.546Z,562
2017-05-05T07:10:44.532Z,590
2017-05-05T07:11:44.616Z,613
2017-05-05T07:12:44.557Z,646
2017-05-05T07:13:44.559Z,663
2017-05-05T07:14:44.557Z,680
2017-05-05T07:15:44.527Z,686
2017-05-05T07:16:44.564Z,697
2017-05-05T07:17:44.535Z,725
2017-05-05T07:18:44.667Z,781
2017-05-05T07:19:44.529Z,838
2017-05-05T07:20:44.564Z,894
2017-05-05T07:21:44.559Z,950
2017-05-05T07:22:44.522Z,978
2017-05-05T07:23:44.628Z,995
2017-05-05T07:24:44.563Z,1012
2017-05-05T07:25:44.547Z,1006
2017-05-05T07:26:44.569Z,990
2017-05-05T07:27:44.566Z,995
2017-05-05T07:28:44.571Z,1012
2017-05-05T07:29:44.675Z,1035
2017-05-05T07:30:44.568Z,1063
2017-05-05T07:31:44.562Z,1080
2017-05-05T07:32:44.534Z,1102
2017-05-05T07:33:44.540Z,1130
2017-05-05T07:34:44.538Z,1147
2017-05-05T07:35:44.541Z,1158
2017-05-05T07:36:44.537Z,1153
2017-05-05T07:37:44.545Z,1119
2017-05-05T07:38:44.540Z,1068
2017-05-05T07:39:44.540Z,1012
2017-05-05T07:40:44.540Z,984
2017-05-05T07:41:44.547Z,995
2017-05-05T07:42:44.559Z,1063
2017-05-05T07:43:44.556Z,1147
2017-05-05T07:44:44.554Z,1237
2017-05-05T07:45:44.557Z,1282
2017-05-05T07:46:44.562Z,1271
2017-05-05T07:47:44.562Z,1209
2017-05-05T07:48:44.561Z,1125
2017-05-05T07:49:44.558Z,1091
2017-05-05T07:50:44.561Z,1080
2017-05-05T07:51:44.560Z,1080
2017-05-05T07:52:44.601Z,1085
2017-05-05T07:53:44.599Z,1130
2017-05-05T07:54:44.553Z,1175
2017-05-05T07:55:44.582Z,1220
2017-05-05T07:56:44.578Z,1254
2017-05-05T07:57:44.579Z,1248
2017-05-05T07:58:44.579Z,1237
2017-05-05T07:59:44.577Z,1226
2017-05-05T08:00:44.584Z,1209
2017-05-05T08:01:44.573Z,1186
2017-05-05T08:02:44.584Z,1153
2017-05-05T08:03:44.586Z,1108
2017-05-05T08:04:44.580Z,1080
2017-05-05T08:05:44.605Z,1068
2017-05-05T08:06:44.583Z,1091
2017-05-05T08:07:44.545Z,1108
2017-05-05T08:08:44.561Z,1102
2017-05-05T08:09:44.585Z,1068
2017-05-05T08:10:44.605Z,1029
2017-05-05T08:11:44.582Z,995
2017-05-05T08:12:44.568Z,961
2017-05-05T08:13:44.554Z,956
2017-05-05T08:14:44.554Z,995
2017-05-05T08:15:44.557Z,1046
2017-05-05T08:16:44.559Z,1080
2017-05-05T08:17:44.557Z,1068
2017-05-05T08:18:44.560Z,1012
2017-05-05T08:19:44.562Z,945
2017-05-05T08:20:44.559Z,911
2017-05-05T08:21:44.561Z,922
2017-05-05T08:22:44.565Z,978
2017-05-05T08:23:44.587Z,1046
2017-05-05T08:24:44.576Z,1125
2017-05-05T08:25:44.577Z,1175
2017-05-05T08:26:44.575Z,1198
2017-05-05T08:27:44.579Z,1192
2017-05-05T08:28:44.603Z,1170
2017-05-05T08:29:44.581Z,1158
2017-05-05T08:30:44.589Z,1147
2017-05-05T08:31:44.586Z,1158
2017-05-05T08:32:44.579Z,1170
2017-05-05T08:33:44.601Z,1175
2017-05-05T08:34:44.600Z,1170
2017-05-05T08:35:44.596Z,1136
2017-05-05T08:36:44.595Z,1096
2017-05-05T08:37:44.601Z,1057
2017-05-05T08:38:44.604Z,1035
2017-05-05T08:39:44.599Z,1023
2017-05-05T08:40:44.597Z,1029
2017-05-05T08:41:44.602Z,1063
2017-05-05T08:42:44.604Z,1085
2017-05-05T08:43:44.504Z,1130
2017-05-05T08:44:44.554Z,1170
2017-05-05T08:45:44.548Z,1209
2017-05-05T08:46:44.588Z,1220
2017-05-05T08:47:44.564Z,1209
2017-05-05T08:48:44.551Z,1175
2017-05-05T08:49:44.562Z,1158
2017-05-05T08:50:44.505Z,1181
2017-05-05T08:51:44.550Z,1215
2017-05-05T08:52:44.551Z,1231
2017-05-05T08:53:44.606Z,1248
2017-05-05T08:54:44.612Z,1243
2017-05-05T08:55:44.569Z,1209
2017-05-05T08:56:44.610Z,1158
2017-05-05T08:57:44.713Z,1102
2017-05-05T08:58:44.632Z,1063
2017-05-05T08:59:44.614Z,1035
2017-05-05T09:00:44.632Z,1029
2017-05-05T09:01:44.607Z,1040
2017-05-05T09:02:44.609Z,1057
2017-05-05T09:03:44.635Z,1080
2017-05-05T09:04:44.612Z,1102
2017-05-05T09:05:44.609Z,1108
2017-05-05T09:06:44.609Z,1096
2017-05-05T09:07:44.637Z,1074
2017-05-05T09:08:44.616Z,1063
2017-05-05T09:09:44.576Z,1057
2017-05-05T09:10:44.622Z,1080
2017-05-05T09:11:44.596Z,1102
2017-05-05T09:12:44.618Z,1119
2017-05-05T09:13:44.601Z,1136
2017-05-05T09:14:44.597Z,1170
2017-05-05T09:15:44.601Z,1209
2017-05-05T09:16:44.599Z,1248
2017-05-05T09:17:44.700Z,1310
2017-05-05T09:18:44.614Z,1361
2017-05-05T09:19:44.605Z,1372
2017-05-05T09:20:44.604Z,1366
2017-05-05T09:21:44.601Z,1366
2017-05-05T09:22:44.606Z,1406
2017-05-05T09:23:44.619Z,1440
2017-05-05T09:24:44.626Z,1468
2017-05-05T09:25:44.583Z,1513
2017-05-05T09:26:44.626Z,1569
2017-05-05T09:27:44.621Z,1608
2017-05-05T09:28:44.604Z,1631
2017-05-05T09:29:44.627Z,1636
2017-05-05T09:30:44.625Z,1625
2017-05-05T09:31:44.626Z,1625
2017-05-05T09:32:44.634Z,1631
2017-05-05T09:33:44.627Z,1636
2017-05-05T09:34:44.630Z,1665
2017-05-05T09:35:44.731Z,1704
2017-05-05T09:36:44.627Z,1721
2017-05-05T09:37:44.626Z,1715
2017-05-05T09:38:44.629Z,1687
2017-05-05T09:39:44.630Z,1659
2017-05-05T09:40:44.627Z,1648
2017-05-05T09:41:44.648Z,1642
2017-05-05T09:42:44.612Z,1591
2017-05-05T09:43:44.628Z,1524
2017-05-05T09:44:44.733Z,1456
2017-05-05T09:45:44.629Z,1434
2017-05-05T09:46:44.656Z,1417
2017-05-05T09:47:44.634Z,1417
2017-05-05T09:48:44.632Z,1395
2017-05-05T09:49:44.639Z,1350
2017-05-05T09:50:44.638Z,1321
2017-05-05T09:51:44.595Z,1321
2017-05-05T09:52:44.613Z,1316
2017-05-05T09:53:44.614Z,1333
2017-05-05T09:54:44.617Z,1395
2017-05-05T09:55:44.618Z,1451
2017-05-05T09:56:44.619Z,1518
2017-05-05T09:57:44.618Z,1603
2017-05-05T09:58:44.618Z,1642
2017-05-05T09:59:44.622Z,1659
2017-05-05T10:00:44.632Z,1659
2017-05-05T10:01:44.625Z,1653
2017-05-05T10:02:44.622Z,1648
2017-05-05T10:03:44.640Z,1625
2017-05-05T10:04:44.644Z,1608
2017-05-05T10:05:44.619Z,1642
2017-05-05T10:06:44.649Z,1732
2017-05-05T10:07:44.640Z,1788
2017-05-05T10:08:44.642Z,1805
2017-05-05T10:09:44.647Z,1839
2017-05-05T10:10:44.650Z,1906
2017-05-05T10:11:44.642Z,1968
2017-05-05T10:12:44.644Z,1996
2017-05-05T10:13:44.654Z,2036
2017-05-05T10:14:44.646Z,2030
2017-05-05T10:15:44.627Z,2064
2017-05-05T10:16:44.652Z,2154
2017-05-05T10:17:44.655Z,2283
2017-05-05T10:18:44.649Z,2368
2017-05-05T10:19:44.651Z,2362
2017-05-05T10:20:44.651Z,2295
2017-05-05T10:21:44.676Z,2199
2017-05-05T10:22:44.649Z,2160
2017-05-05T10:23:44.619Z,2171
2017-05-05T10:24:44.623Z,2227
2017-05-05T10:25:44.626Z,2345
2017-05-05T10:26:44.622Z,2486
2017-05-05T10:27:44.626Z,2638
2017-05-05T10:28:44.624Z,2773
2017-05-05T10:29:44.629Z,2823
2017-05-05T10:30:44.624Z,2857
2017-05-05T10:31:44.626Z,2863
2017-05-05T10:32:44.631Z,2829
2017-05-05T10:33:44.640Z,2745
2017-05-05T10:34:44.642Z,2604
2017-05-05T10:35:44.644Z,2435
2017-05-05T10:36:44.644Z,2261
2017-05-05T10:37:44.654Z,2109
2017-05-05T10:38:44.641Z,1980
2017-05-05T10:39:44.643Z,1912
2017-05-05T10:40:44.650Z,1884
2017-05-05T10:41:44.643Z,1856
2017-05-05T10:42:44.646Z,1822
2017-05-05T10:43:44.639Z,1822
2017-05-05T10:44:44.640Z,1878
2017-05-05T10:45:44.651Z,1951
2017-05-05T10:46:44.644Z,2036
2017-05-05T10:47:44.634Z,2092
2017-05-05T10:48:44.521Z,2126
2017-05-05T10:49:44.566Z,2165
2017-05-05T10:50:44.572Z,2199
2017-05-05T10:51:44.567Z,2233
2017-05-05T10:52:44.615Z,2283
2017-05-05T10:53:44.569Z,2323
2017-05-05T10:54:44.567Z,2379
2017-05-05T10:55:44.613Z,2458
2017-05-05T10:56:44.612Z,2553
2017-05-05T10:57:44.561Z,2649
2017-05-05T10:58:44.561Z,2756
2017-05-05T10:59:44.574Z,2851
2017-05-05T11:00:44.642Z,2896
2017-05-05T11:01:44.565Z,2919
2017-05-05T11:02:44.566Z,2908
2017-05-05T11:03:44.608Z,2896
2017-05-05T11:04:44.663Z,2891
2017-05-05T11:05:44.622Z,2908
2017-05-05T11:06:44.672Z,2992
2017-05-05T11:07:44.653Z,3133
2017-05-05T11:08:44.657Z,3335
2017-05-05T11:09:44.674Z,3459
2017-05-05T11:10:44.660Z,3543
2017-05-05T11:11:44.659Z,3526
2017-05-05T11:12:44.657Z,3448
2017-05-05T11:13:44.657Z,3330
2017-05-05T11:14:44.661Z,3223
2017-05-05T11:15:44.662Z,3144
2017-05-05T11:16:44.678Z,3082
2017-05-05T11:17:44.645Z,3003
2017-05-05T11:18:44.645Z,2880
2017-05-05T11:19:44.649Z,2733
2017-05-05T11:20:44.648Z,2525
2017-05-05T11:21:44.653Z,2373
2017-05-05T11:22:44.649Z,2250
2017-05-05T11:23:44.750Z,2221
2017-05-05T11:24:44.652Z,2266
2017-05-05T11:25:44.647Z,2356
2017-05-05T11:26:44.656Z,2497
2017-05-05T11:27:44.688Z,2677
2017-05-05T11:28:44.683Z,2857
2017-05-05T11:29:44.692Z,3026
2017-05-05T11:30:44.689Z,3116
2017-05-05T11:31:44.685Z,3155
2017-05-05T11:32:44.663Z,3121
2017-05-05T11:33:44.685Z,3060
2017-05-05T11:34:44.680Z,2908
2017-05-05T11:35:44.688Z,2773
2017-05-05T11:36:44.691Z,2632
2017-05-05T11:37:44.690Z,2486
2017-05-05T11:38:44.648Z,2368
2017-05-05T11:39:44.822Z,2272
2017-05-05T11:40:44.800Z,2233
2017-05-05T11:41:44.686Z,2238
2017-05-05T11:42:44.750Z,2266
2017-05-05T11:43:44.691Z,2300
2017-05-05T11:44:44.697Z,2306
2017-05-05T11:45:44.695Z,2283
2017-05-05T11:46:44.693Z,2227
2017-05-05T11:47:44.702Z,2171
2017-05-05T11:48:44.696Z,2126
2017-05-05T11:49:44.696Z,2120
2017-05-05T11:50:44.657Z,2131
2017-05-05T11:51:44.695Z,2165
2017-05-05T11:52:44.690Z,2176
2017-05-05T11:53:44.675Z,2171
2017-05-05T11:54:44.695Z,2137
2017-05-05T11:55:44.699Z,2086
2017-05-05T11:56:44.696Z,2047
2017-05-05T11:57:44.659Z,2013
2017-05-05T11:58:44.677Z,2025
2017-05-05T11:59:44.662Z,2002
2017-05-05T12:00:44.676Z,2025
2017-05-05T12:01:44.706Z,2053
2017-05-05T12:02:44.707Z,2086
2017-05-05T12:03:44.704Z,2131
2017-05-05T12:04:44.663Z,2143
2017-05-05T12:05:44.701Z,2137
2017-05-05T12:06:44.709Z,2103
2017-05-05T12:07:44.693Z,2053
2017-05-05T12:08:44.684Z,1991
2017-05-05T12:09:44.703Z,1946
2017-05-05T12:10:44.706Z,1912
2017-05-05T12:11:44.758Z,1929
2017-05-05T12:12:44.728Z,1968
2017-05-05T12:13:44.712Z,2013
2017-05-05T12:14:44.708Z,2103
2017-05-05T12:15:44.726Z,2176
2017-05-05T12:16:44.706Z,2210
2017-05-05T12:17:44.669Z,2216
2017-05-05T12:18:44.671Z,2205
2017-05-05T12:19:44.734Z,2171
2017-05-05T12:20:44.678Z,2137
2017-05-05T12:21:44.733Z,2131
2017-05-05T12:22:44.709Z,2137
2017-05-05T12:23:44.712Z,2143
2017-05-05T12:24:44.712Z,2154
2017-05-05T12:25:44.712Z,2160
2017-05-05T12:26:44.818Z,2160
2017-05-05T12:27:44.719Z,2137
2017-05-05T12:28:44.711Z,2103
2017-05-05T12:29:44.713Z,2070
2017-05-05T12:30:44.737Z,2053
2017-05-05T12:31:44.675Z,2053
2017-05-05T12:32:44.719Z,2064
2017-05-05T12:33:44.722Z,2058
2017-05-05T12:34:44.719Z,2064
2017-05-05T12:35:44.738Z,2092
2017-05-05T12:36:44.723Z,2143
2017-05-05T12:37:44.726Z,2199
2017-05-05T12:38:44.721Z,2272
2017-05-05T12:39:44.815Z,2340
2017-05-05T12:40:44.742Z,2418
2017-05-05T12:41:44.721Z,2508
2017-05-05T12:42:44.725Z,2598
2017-05-05T12:43:44.724Z,2694
2017-05-05T12:44:44.725Z,2745
2017-05-05T12:45:44.726Z,2773
2017-05-05T12:46:44.726Z,2773
2017-05-05T12:47:44.724Z,2795
2017-05-05T12:48:44.730Z,2840
2017-05-05T12:49:44.725Z,2880
2017-05-05T12:50:44.703Z,2919
2017-05-05T12:51:44.726Z,2953
2017-05-05T12:52:44.728Z,2947
2017-05-05T12:53:44.721Z,2913
2017-05-05T12:54:44.731Z,2840
2017-05-05T12:55:44.700Z,2767
2017-05-05T12:56:44.752Z,2705
2017-05-05T12:57:44.714Z,2643
2017-05-05T12:58:44.735Z,2604
2017-05-05T12:59:44.730Z,2570
2017-05-05T13:00:44.692Z,2531
2017-05-05T13:01:44.756Z,2480
2017-05-05T13:02:44.719Z,2430
2017-05-05T13:03:44.769Z,2379
2017-05-05T13:04:44.713Z,2323
2017-05-05T13:05:44.737Z,2244
2017-05-05T13:06:44.727Z,2171
2017-05-05T13:07:44.738Z,2092
2017-05-05T13:08:44.633Z,2002
2017-05-05T13:09:44.617Z,1912
2017-05-05T13:10:44.629Z,1833
2017-05-05T13:11:44.677Z,1788
2017-05-05T13:12:44.676Z,1760
2017-05-05T13:13:44.635Z,1749
2017-05-05T13:14:44.690Z,1749
2017-05-05T13:15:44.643Z,1755
2017-05-05T13:16:44.636Z,1760
2017-05-05T13:17:44.696Z,1749
2017-05-05T13:18:44.737Z,1726
2017-05-05T13:19:44.759Z,1659
2017-05-05T13:20:44.743Z,1586
2017-05-05T13:21:44.742Z,1513
2017-05-05T13:22:44.742Z,1417
2017-05-05T13:23:44.743Z,1344
2017-05-05T13:24:44.766Z,1288
2017-05-05T13:25:44.733Z,1271
2017-05-05T13:26:44.848Z,1248
2017-05-05T13:27:44.741Z,1243
2017-05-05T13:28:44.749Z,1248
2017-05-05T13:29:44.745Z,1248
2017-05-05T13:30:44.747Z,1248
2017-05-05T13:31:44.745Z,1248
2017-05-05T13:32:44.740Z,1243
2017-05-05T13:33:44.744Z,1248
2017-05-05T13:34:44.746Z,1231
2017-05-05T13:35:44.752Z,1203
2017-05-05T13:36:44.775Z,1181
2017-05-05T13:37:44.732Z,1158
2017-05-05T13:38:44.754Z,1141
2017-05-05T13:39:44.752Z,1113
2017-05-05T13:40:44.747Z,1080
2017-05-05T13:41:44.760Z,1046
2017-05-05T13:42:44.757Z,1023
2017-05-05T13:43:44.779Z,1001
2017-05-05T13:44:44.752Z,990
2017-05-05T13:45:44.751Z,990
2017-05-05T13:46:44.715Z,995
2017-05-05T13:47:44.750Z,1006
2017-05-05T13:48:44.751Z,1023
2017-05-05T13:49:44.763Z,1023
2017-05-05T13:50:44.752Z,1029